sensor_id;sensor_type;location;lat;lon;timestamp;temperature;humidity
51765;DHT22;37835;53.256;6.456;2023-05-18T00:01:31;8.20;99.90
51765;DHT22;37835;53.256;6.456;2023-05-18T00:03:57;8.20;99.90
51765;DHT22;37835;53.256;6.456;2023-05-18T00:06:23;8.20;99.90
51765;DHT22;37835;53.256;6.456;2023-05-18T00:08:50;8.20;99.90
51765;DHT22;37835;53.256;6.456;2023-05-18T00:11:16;8.20;99.90
51765;DHT22;37835;53.256;6.456;2023-05-18T00:13:42;8.10;99.90
51765;DHT22;37835;53.256;6.456;2023-05-18T00:16:08;8.10;99.90
51765;DHT22;37835;53.256;6.456;2023-05-18T00:18:34;8.10;99.90
51765;DHT22;37835;53.256;6.456;2023-05-18T00:21:00;8.10;99.90
51765;DHT22;37835;53.256;6.456;2023-05-18T00:23:29;8.10;99.90
51765;DHT22;37835;53.256;6.456;2023-05-18T00:26:00;8.10;99.90
51765;DHT22;37835;53.256;6.456;2023-05-18T00:28:25;8.20;99.90
51765;DHT22;37835;53.256;6.456;2023-05-18T00:30:52;8.10;99.90
51765;DHT22;37835;53.256;6.456;2023-05-18T00:33:18;8.10;99.90
51765;DHT22;37835;53.256;6.456;2023-05-18T00:35:44;8.10;99.90
51765;DHT22;37835;53.256;6.456;2023-05-18T00:38:09;8.10;99.90
51765;DHT22;37835;53.256;6.456;2023-05-18T00:40:37;8.10;99.90
51765;DHT22;37835;53.256;6.456;2023-05-18T00:43:03;8.10;99.90
51765;DHT22;37835;53.256;6.456;2023-05-18T00:45:29;8.10;99.90
51765;DHT22;37835;53.256;6.456;2023-05-18T00:47:55;8.10;99.90
51765;DHT22;37835;53.256;6.456;2023-05-18T00:50:20;8.10;99.90
51765;DHT22;37835;53.256;6.456;2023-05-18T00:52:46;8.10;99.90
51765;DHT22;37835;53.256;6.456;2023-05-18T00:55:12;8.10;99.90
51765;DHT22;37835;53.256;6.456;2023-05-18T00:57:39;8.10;99.90
51765;DHT22;37835;53.256;6.456;2023-05-18T01:00:07;8.20;99.90
51765;DHT22;37835;53.256;6.456;2023-05-18T01:02:35;8.10;99.90
51765;DHT22;37835;53.256;6.456;2023-05-18T01:05:02;8.10;99.90
51765;DHT22;37835;53.256;6.456;2023-05-18T01:07:29;8.10;99.90
51765;DHT22;37835;53.256;6.456;2023-05-18T01:09:58;8.10;99.90
51765;DHT22;37835;53.256;6.456;2023-05-18T01:12:40;8.10;99.90
51765;DHT22;37835;53.256;6.456;2023-05-18T01:15:12;8.10;99.90
51765;DHT22;37835;53.256;6.456;2023-05-18T01:17:47;8.10;99.90
51765;DHT22;37835;53.256;6.456;2023-05-18T01:20:30;8.10;99.90
51765;DHT22;37835;53.256;6.456;2023-05-18T01:28:31;8.10;99.90
51765;DHT22;37835;53.256;6.456;2023-05-18T01:30:58;8.20;99.90
51765;DHT22;37835;53.256;6.456;2023-05-18T01:33:23;8.20;99.90
51765;DHT22;37835;53.256;6.456;2023-05-18T01:35:50;8.20;99.90
51765;DHT22;37835;53.256;6.456;2023-05-18T01:38:18;8.20;99.90
51765;DHT22;37835;53.256;6.456;2023-05-18T01:41:06;8.20;99.90
51765;DHT22;37835;53.256;6.456;2023-05-18T01:43:35;8.20;99.90
51765;DHT22;37835;53.256;6.456;2023-05-18T01:46:08;8.30;99.90
51765;DHT22;37835;53.256;6.456;2023-05-18T01:48:38;8.20;99.90
51765;DHT22;37835;53.256;6.456;2023-05-18T01:51:06;8.20;99.90
51765;DHT22;37835;53.256;6.456;2023-05-18T01:53:40;8.20;99.90
51765;DHT22;37835;53.256;6.456;2023-05-18T01:56:08;8.20;99.90
51765;DHT22;37835;53.256;6.456;2023-05-18T01:58:36;8.30;99.90
51765;DHT22;37835;53.256;6.456;2023-05-18T02:01:02;8.20;99.90
51765;DHT22;37835;53.256;6.456;2023-05-18T02:03:31;8.20;99.90
51765;DHT22;37835;53.256;6.456;2023-05-18T02:05:57;7.80;99.90
51765;DHT22;37835;53.256;6.456;2023-05-18T02:08:22;8.20;99.90
51765;DHT22;37835;53.256;6.456;2023-05-18T02:10:48;8.20;99.90
51765;DHT22;37835;53.256;6.456;2023-05-18T02:13:14;8.30;99.90
51765;DHT22;37835;53.256;6.456;2023-05-18T02:15:39;8.30;99.90
51765;DHT22;37835;53.256;6.456;2023-05-18T02:18:05;8.30;99.90
51765;DHT22;37835;53.256;6.456;2023-05-18T02:20:32;8.30;99.90
51765;DHT22;37835;53.256;6.456;2023-05-18T02:22:58;8.30;99.90
51765;DHT22;37835;53.256;6.456;2023-05-18T02:25:24;8.30;99.90
51765;DHT22;37835;53.256;6.456;2023-05-18T02:27:50;8.30;99.90
51765;DHT22;37835;53.256;6.456;2023-05-18T02:30:17;8.30;99.90
51765;DHT22;37835;53.256;6.456;2023-05-18T02:32:43;8.30;99.90
51765;DHT22;37835;53.256;6.456;2023-05-18T02:35:11;8.30;99.90
51765;DHT22;37835;53.256;6.456;2023-05-18T02:37:37;8.30;99.90
51765;DHT22;37835;53.256;6.456;2023-05-18T02:40:12;8.90;99.90
51765;DHT22;37835;53.256;6.456;2023-05-18T02:42:37;8.20;99.90
51765;DHT22;37835;53.256;6.456;2023-05-18T02:45:03;8.20;99.90
51765;DHT22;37835;53.256;6.456;2023-05-18T02:47:29;8.20;99.90
51765;DHT22;37835;53.256;6.456;2023-05-18T02:49:55;8.20;99.90
51765;DHT22;37835;53.256;6.456;2023-05-18T02:52:20;8.20;99.90
51765;DHT22;37835;53.256;6.456;2023-05-18T02:54:46;8.20;99.90
51765;DHT22;37835;53.256;6.456;2023-05-18T02:57:12;8.20;99.90
51765;DHT22;37835;53.256;6.456;2023-05-18T02:59:38;8.20;99.90
51765;DHT22;37835;53.256;6.456;2023-05-18T03:02:04;8.20;99.90
51765;DHT22;37835;53.256;6.456;2023-05-18T03:04:30;8.10;99.90
51765;DHT22;37835;53.256;6.456;2023-05-18T03:06:56;8.10;99.90
51765;DHT22;37835;53.256;6.456;2023-05-18T03:09:22;8.10;99.90
51765;DHT22;37835;53.256;6.456;2023-05-18T03:11:48;8.10;99.90
51765;DHT22;37835;53.256;6.456;2023-05-18T03:14:14;8.10;99.90
51765;DHT22;37835;53.256;6.456;2023-05-18T03:16:40;8.10;99.90
51765;DHT22;37835;53.256;6.456;2023-05-18T03:19:05;8.10;99.90
51765;DHT22;37835;53.256;6.456;2023-05-18T03:21:31;8.10;99.90
51765;DHT22;37835;53.256;6.456;2023-05-18T03:24:01;8.10;99.90
51765;DHT22;37835;53.256;6.456;2023-05-18T03:26:27;8.10;99.90
51765;DHT22;37835;53.256;6.456;2023-05-18T03:28:56;8.10;99.90
51765;DHT22;37835;53.256;6.456;2023-05-18T03:31:21;8.10;99.90
51765;DHT22;37835;53.256;6.456;2023-05-18T03:33:47;8.10;99.90
51765;DHT22;37835;53.256;6.456;2023-05-18T03:36:13;8.10;99.90
51765;DHT22;37835;53.256;6.456;2023-05-18T03:38:41;8.10;99.90
51765;DHT22;37835;53.256;6.456;2023-05-18T03:41:10;8.00;99.90
51765;DHT22;37835;53.256;6.456;2023-05-18T03:43:36;8.00;99.90
51765;DHT22;37835;53.256;6.456;2023-05-18T03:46:01;8.00;99.90
51765;DHT22;37835;53.256;6.456;2023-05-18T03:48:28;8.00;99.90
51765;DHT22;37835;53.256;6.456;2023-05-18T03:50:54;8.00;99.90
51765;DHT22;37835;53.256;6.456;2023-05-18T03:53:20;8.00;99.90
51765;DHT22;37835;53.256;6.456;2023-05-18T03:55:47;8.00;99.90
51765;DHT22;37835;53.256;6.456;2023-05-18T03:58:16;8.00;99.90
51765;DHT22;37835;53.256;6.456;2023-05-18T04:00:41;8.00;99.90
51765;DHT22;37835;53.256;6.456;2023-05-18T04:03:08;8.10;99.90
51765;DHT22;37835;53.256;6.456;2023-05-18T04:05:37;8.10;99.90
51765;DHT22;37835;53.256;6.456;2023-05-18T04:08:03;8.10;99.90
51765;DHT22;37835;53.256;6.456;2023-05-18T04:10:29;8.10;99.90
51765;DHT22;37835;53.256;6.456;2023-05-18T04:12:55;8.10;99.90
51765;DHT22;37835;53.256;6.456;2023-05-18T04:15:21;8.10;99.90
51765;DHT22;37835;53.256;6.456;2023-05-18T04:17:49;8.10;99.90
51765;DHT22;37835;53.256;6.456;2023-05-18T04:20:15;8.10;99.90
51765;DHT22;37835;53.256;6.456;2023-05-18T04:22:46;8.10;99.90
51765;DHT22;37835;53.256;6.456;2023-05-18T04:25:13;8.20;99.90
51765;DHT22;37835;53.256;6.456;2023-05-18T04:27:40;8.20;99.90
51765;DHT22;37835;53.256;6.456;2023-05-18T04:30:07;8.10;99.90
51765;DHT22;37835;53.256;6.456;2023-05-18T04:32:35;8.20;99.90
51765;DHT22;37835;53.256;6.456;2023-05-18T04:35:03;8.20;99.90
51765;DHT22;37835;53.256;6.456;2023-05-18T04:37:29;8.30;99.90
51765;DHT22;37835;53.256;6.456;2023-05-18T04:39:55;8.30;99.90
51765;DHT22;37835;53.256;6.456;2023-05-18T04:42:23;8.30;99.90
51765;DHT22;37835;53.256;6.456;2023-05-18T04:44:48;8.30;99.90
51765;DHT22;37835;53.256;6.456;2023-05-18T04:47:16;8.30;99.90
51765;DHT22;37835;53.256;6.456;2023-05-18T04:49:42;8.30;99.90
51765;DHT22;37835;53.256;6.456;2023-05-18T04:52:08;8.30;99.90
51765;DHT22;37835;53.256;6.456;2023-05-18T04:54:34;8.40;99.90
51765;DHT22;37835;53.256;6.456;2023-05-18T04:57:00;8.10;99.90
51765;DHT22;37835;53.256;6.456;2023-05-18T04:59:27;8.40;99.90
51765;DHT22;37835;53.256;6.456;2023-05-18T05:01:53;8.40;99.90
51765;DHT22;37835;53.256;6.456;2023-05-18T05:04:20;8.40;99.90
51765;DHT22;37835;53.256;6.456;2023-05-18T05:06:46;8.40;99.90
51765;DHT22;37835;53.256;6.456;2023-05-18T05:09:12;8.40;99.90
51765;DHT22;37835;53.256;6.456;2023-05-18T05:11:39;8.50;99.90
51765;DHT22;37835;53.256;6.456;2023-05-18T05:14:06;8.50;99.90
51765;DHT22;37835;53.256;6.456;2023-05-18T05:16:31;8.50;99.90
51765;DHT22;37835;53.256;6.456;2023-05-18T05:18:57;8.60;99.90
51765;DHT22;37835;53.256;6.456;2023-05-18T05:21:22;8.60;99.90
51765;DHT22;37835;53.256;6.456;2023-05-18T05:23:48;8.70;99.90
51765;DHT22;37835;53.256;6.456;2023-05-18T05:26:14;8.70;99.90
51765;DHT22;37835;53.256;6.456;2023-05-18T05:28:39;8.70;99.90
51765;DHT22;37835;53.256;6.456;2023-05-18T05:31:05;8.70;99.90
51765;DHT22;37835;53.256;6.456;2023-05-18T05:33:30;8.80;99.90
51765;DHT22;37835;53.256;6.456;2023-05-18T05:35:56;8.80;99.90
51765;DHT22;37835;53.256;6.456;2023-05-18T05:38:21;8.80;99.90
51765;DHT22;37835;53.256;6.456;2023-05-18T05:40:47;8.90;99.90
51765;DHT22;37835;53.256;6.456;2023-05-18T05:43:13;8.90;99.90
51765;DHT22;37835;53.256;6.456;2023-05-18T05:45:38;8.90;99.90
51765;DHT22;37835;53.256;6.456;2023-05-18T05:48:04;8.90;99.90
51765;DHT22;37835;53.256;6.456;2023-05-18T05:50:31;9.00;99.90
51765;DHT22;37835;53.256;6.456;2023-05-18T05:52:56;9.00;99.90
51765;DHT22;37835;53.256;6.456;2023-05-18T05:55:22;9.00;99.90
51765;DHT22;37835;53.256;6.456;2023-05-18T05:57:48;9.70;99.90
51765;DHT22;37835;53.256;6.456;2023-05-18T06:00:13;9.10;99.90
51765;DHT22;37835;53.256;6.456;2023-05-18T06:02:39;9.20;99.90
51765;DHT22;37835;53.256;6.456;2023-05-18T06:05:06;9.20;99.90
51765;DHT22;37835;53.256;6.456;2023-05-18T06:07:32;9.20;99.90
51765;DHT22;37835;53.256;6.456;2023-05-18T06:09:58;9.30;99.90
51765;DHT22;37835;53.256;6.456;2023-05-18T06:12:23;9.30;99.90
51765;DHT22;37835;53.256;6.456;2023-05-18T06:14:49;9.30;99.90
51765;DHT22;37835;53.256;6.456;2023-05-18T06:17:18;9.30;99.90
51765;DHT22;37835;53.256;6.456;2023-05-18T06:19:44;9.30;99.90
51765;DHT22;37835;53.256;6.456;2023-05-18T06:22:09;9.00;99.90
51765;DHT22;37835;53.256;6.456;2023-05-18T06:24:35;9.40;99.90
51765;DHT22;37835;53.256;6.456;2023-05-18T06:27:01;9.40;99.90
51765;DHT22;37835;53.256;6.456;2023-05-18T06:29:26;9.40;99.90
51765;DHT22;37835;53.256;6.456;2023-05-18T06:31:52;9.00;99.90
51765;DHT22;37835;53.256;6.456;2023-05-18T06:34:17;9.50;99.90
51765;DHT22;37835;53.256;6.456;2023-05-18T06:36:43;9.50;99.90
51765;DHT22;37835;53.256;6.456;2023-05-18T06:39:08;9.60;99.90
51765;DHT22;37835;53.256;6.456;2023-05-18T06:41:34;9.60;99.90
51765;DHT22;37835;53.256;6.456;2023-05-18T06:44:00;9.60;99.90
51765;DHT22;37835;53.256;6.456;2023-05-18T06:46:26;9.60;99.90
51765;DHT22;37835;53.256;6.456;2023-05-18T06:48:53;9.70;99.90
51765;DHT22;37835;53.256;6.456;2023-05-18T06:51:19;9.70;99.90
51765;DHT22;37835;53.256;6.456;2023-05-18T06:53:45;9.80;99.90
51765;DHT22;37835;53.256;6.456;2023-05-18T06:56:10;9.80;99.90
51765;DHT22;37835;53.256;6.456;2023-05-18T06:58:38;9.80;99.90
51765;DHT22;37835;53.256;6.456;2023-05-18T07:01:03;9.90;99.90
51765;DHT22;37835;53.256;6.456;2023-05-18T07:03:29;9.90;99.90
51765;DHT22;37835;53.256;6.456;2023-05-18T07:05:55;10.00;99.90
51765;DHT22;37835;53.256;6.456;2023-05-18T07:08:20;10.00;99.90
51765;DHT22;37835;53.256;6.456;2023-05-18T07:10:46;9.90;99.90
51765;DHT22;37835;53.256;6.456;2023-05-18T07:13:12;10.10;99.90
51765;DHT22;37835;53.256;6.456;2023-05-18T07:15:38;10.20;99.90
51765;DHT22;37835;53.256;6.456;2023-05-18T07:18:03;10.20;99.90
51765;DHT22;37835;53.256;6.456;2023-05-18T07:20:29;10.20;99.90
51765;DHT22;37835;53.256;6.456;2023-05-18T07:22:54;10.30;99.90
51765;DHT22;37835;53.256;6.456;2023-05-18T07:25:21;10.30;99.90
51765;DHT22;37835;53.256;6.456;2023-05-18T07:27:46;10.40;99.90
51765;DHT22;37835;53.256;6.456;2023-05-18T07:30:12;10.40;99.90
51765;DHT22;37835;53.256;6.456;2023-05-18T07:32:38;10.50;99.90
51765;DHT22;37835;53.256;6.456;2023-05-18T07:35:03;10.30;99.90
51765;DHT22;37835;53.256;6.456;2023-05-18T07:37:29;10.60;99.90
51765;DHT22;37835;53.256;6.456;2023-05-18T07:39:55;10.60;99.90
51765;DHT22;37835;53.256;6.456;2023-05-18T07:42:21;10.70;99.90
51765;DHT22;37835;53.256;6.456;2023-05-18T07:44:46;10.70;99.90
51765;DHT22;37835;53.256;6.456;2023-05-18T07:47:12;10.80;99.90
51765;DHT22;37835;53.256;6.456;2023-05-18T07:49:37;10.80;99.90
51765;DHT22;37835;53.256;6.456;2023-05-18T07:52:06;10.90;99.90
51765;DHT22;37835;53.256;6.456;2023-05-18T07:54:32;10.90;99.90
51765;DHT22;37835;53.256;6.456;2023-05-18T07:56:58;11.00;99.90
51765;DHT22;37835;53.256;6.456;2023-05-18T07:59:23;11.00;99.90
51765;DHT22;37835;53.256;6.456;2023-05-18T08:01:49;11.10;99.90
51765;DHT22;37835;53.256;6.456;2023-05-18T08:04:14;11.20;99.90
51765;DHT22;37835;53.256;6.456;2023-05-18T08:06:40;11.30;99.90
51765;DHT22;37835;53.256;6.456;2023-05-18T08:09:06;11.30;99.90
51765;DHT22;37835;53.256;6.456;2023-05-18T08:11:32;11.40;99.90
51765;DHT22;37835;53.256;6.456;2023-05-18T08:13:57;11.50;99.90
51765;DHT22;37835;53.256;6.456;2023-05-18T08:16:23;11.50;99.90
51765;DHT22;37835;53.256;6.456;2023-05-18T08:18:48;11.60;99.90
51765;DHT22;37835;53.256;6.456;2023-05-18T08:21:14;11.60;99.90
51765;DHT22;37835;53.256;6.456;2023-05-18T08:23:41;11.60;99.90
51765;DHT22;37835;53.256;6.456;2023-05-18T08:26:06;11.70;99.90
51765;DHT22;37835;53.256;6.456;2023-05-18T08:28:33;11.80;99.90
51765;DHT22;37835;53.256;6.456;2023-05-18T08:30:58;11.80;99.90
51765;DHT22;37835;53.256;6.456;2023-05-18T08:33:24;11.80;99.90
51765;DHT22;37835;53.256;6.456;2023-05-18T08:35:50;11.80;99.90
51765;DHT22;37835;53.256;6.456;2023-05-18T08:38:16;11.90;99.90
51765;DHT22;37835;53.256;6.456;2023-05-18T08:40:53;11.90;99.90
51765;DHT22;37835;53.256;6.456;2023-05-18T08:43:21;11.90;99.90
51765;DHT22;37835;53.256;6.456;2023-05-18T08:46:27;11.90;99.90
51765;DHT22;37835;53.256;6.456;2023-05-18T08:48:54;11.90;99.90
51765;DHT22;37835;53.256;6.456;2023-05-18T08:51:21;11.90;99.90
51765;DHT22;37835;53.256;6.456;2023-05-18T08:53:53;11.90;99.90
51765;DHT22;37835;53.256;6.456;2023-05-18T08:56:22;11.90;99.90
51765;DHT22;37835;53.256;6.456;2023-05-18T08:58:50;12.00;99.90
51765;DHT22;37835;53.256;6.456;2023-05-18T09:01:16;12.00;99.90
51765;DHT22;37835;53.256;6.456;2023-05-18T09:03:43;12.10;99.90
51765;DHT22;37835;53.256;6.456;2023-05-18T09:06:09;12.10;99.90
51765;DHT22;37835;53.256;6.456;2023-05-18T09:08:35;12.20;99.90
51765;DHT22;37835;53.256;6.456;2023-05-18T09:11:02;12.30;99.90
51765;DHT22;37835;53.256;6.456;2023-05-18T09:13:28;12.30;99.90
51765;DHT22;37835;53.256;6.456;2023-05-18T09:15:54;12.30;99.90
51765;DHT22;37835;53.256;6.456;2023-05-18T09:18:20;12.40;99.90
51765;DHT22;37835;53.256;6.456;2023-05-18T09:20:45;12.40;99.90
51765;DHT22;37835;53.256;6.456;2023-05-18T09:23:12;12.50;99.90
51765;DHT22;37835;53.256;6.456;2023-05-18T09:25:43;12.50;99.90
51765;DHT22;37835;53.256;6.456;2023-05-18T09:28:12;12.50;99.90
51765;DHT22;37835;53.256;6.456;2023-05-18T09:30:42;12.50;99.90
51765;DHT22;37835;53.256;6.456;2023-05-18T09:33:15;12.40;99.90
51765;DHT22;37835;53.256;6.456;2023-05-18T09:35:43;12.50;99.90
51765;DHT22;37835;53.256;6.456;2023-05-18T09:38:08;12.50;99.90
51765;DHT22;37835;53.256;6.456;2023-05-18T09:40:35;12.50;99.90
51765;DHT22;37835;53.256;6.456;2023-05-18T09:43:06;12.50;99.90
51765;DHT22;37835;53.256;6.456;2023-05-18T09:45:31;12.50;99.90
51765;DHT22;37835;53.256;6.456;2023-05-18T09:47:57;12.60;99.90
51765;DHT22;37835;53.256;6.456;2023-05-18T09:50:23;12.60;99.90
51765;DHT22;37835;53.256;6.456;2023-05-18T09:52:49;12.60;99.90
51765;DHT22;37835;53.256;6.456;2023-05-18T09:55:17;12.70;99.90
51765;DHT22;37835;53.256;6.456;2023-05-18T09:57:48;12.70;99.90
51765;DHT22;37835;53.256;6.456;2023-05-18T10:00:15;12.70;99.90
51765;DHT22;37835;53.256;6.456;2023-05-18T10:02:44;12.70;99.90
51765;DHT22;37835;53.256;6.456;2023-05-18T10:05:26;12.70;99.90
51765;DHT22;37835;53.256;6.456;2023-05-18T10:07:56;12.70;99.90
51765;DHT22;37835;53.256;6.456;2023-05-18T10:10:24;12.70;99.90
51765;DHT22;37835;53.256;6.456;2023-05-18T10:12:51;12.80;99.90
51765;DHT22;37835;53.256;6.456;2023-05-18T10:15:19;12.80;99.90
51765;DHT22;37835;53.256;6.456;2023-05-18T10:17:49;12.80;99.90
51765;DHT22;37835;53.256;6.456;2023-05-18T10:20:19;12.80;99.90
51765;DHT22;37835;53.256;6.456;2023-05-18T10:22:46;12.90;99.90
51765;DHT22;37835;53.256;6.456;2023-05-18T10:25:18;12.90;99.90
51765;DHT22;37835;53.256;6.456;2023-05-18T10:27:46;12.90;99.90
51765;DHT22;37835;53.256;6.456;2023-05-18T10:30:14;13.00;99.90
51765;DHT22;37835;53.256;6.456;2023-05-18T10:32:42;13.10;99.90
51765;DHT22;37835;53.256;6.456;2023-05-18T10:35:12;13.20;99.90
51765;DHT22;37835;53.256;6.456;2023-05-18T10:37:40;13.30;99.90
51765;DHT22;37835;53.256;6.456;2023-05-18T10:40:07;13.40;99.90
51765;DHT22;37835;53.256;6.456;2023-05-18T10:42:34;13.40;99.90
51765;DHT22;37835;53.256;6.456;2023-05-18T10:45:01;13.50;99.90
51765;DHT22;37835;53.256;6.456;2023-05-18T10:47:27;13.50;99.90
51765;DHT22;37835;53.256;6.456;2023-05-18T10:49:53;13.50;99.90
51765;DHT22;37835;53.256;6.456;2023-05-18T10:52:19;13.60;99.90
51765;DHT22;37835;53.256;6.456;2023-05-18T10:54:46;13.70;99.90
51765;DHT22;37835;53.256;6.456;2023-05-18T10:57:14;13.70;99.90
51765;DHT22;37835;53.256;6.456;2023-05-18T10:59:42;13.70;99.90
51765;DHT22;37835;53.256;6.456;2023-05-18T11:02:17;13.80;99.90
51765;DHT22;37835;53.256;6.456;2023-05-18T11:04:45;13.80;99.90
51765;DHT22;37835;53.256;6.456;2023-05-18T11:07:12;13.80;99.90
51765;DHT22;37835;53.256;6.456;2023-05-18T11:09:42;13.80;99.90
51765;DHT22;37835;53.256;6.456;2023-05-18T11:12:12;13.80;99.90
51765;DHT22;37835;53.256;6.456;2023-05-18T11:14:52;13.80;99.90
51765;DHT22;37835;53.256;6.456;2023-05-18T11:17:22;13.80;99.90
51765;DHT22;37835;53.256;6.456;2023-05-18T11:22:50;13.70;99.90
51765;DHT22;37835;53.256;6.456;2023-05-18T11:25:35;13.70;99.90
51765;DHT22;37835;53.256;6.456;2023-05-18T11:28:03;13.70;99.90
51765;DHT22;37835;53.256;6.456;2023-05-18T11:35:54;13.80;99.90
51765;DHT22;37835;53.256;6.456;2023-05-18T11:38:20;13.80;99.90
51765;DHT22;37835;53.256;6.456;2023-05-18T11:40:47;13.80;99.90
51765;DHT22;37835;53.256;6.456;2023-05-18T11:43:23;13.80;99.90
51765;DHT22;37835;53.256;6.456;2023-05-18T11:45:57;13.80;99.90
51765;DHT22;37835;53.256;6.456;2023-05-18T11:48:26;13.80;99.90
51765;DHT22;37835;53.256;6.456;2023-05-18T11:50:55;13.90;99.90
51765;DHT22;37835;53.256;6.456;2023-05-18T11:53:25;13.90;99.90
51765;DHT22;37835;53.256;6.456;2023-05-18T11:55:52;14.00;99.90
51765;DHT22;37835;53.256;6.456;2023-05-18T11:58:24;14.00;99.90
51765;DHT22;37835;53.256;6.456;2023-05-18T12:00:51;14.00;99.90
51765;DHT22;37835;53.256;6.456;2023-05-18T12:03:21;14.10;99.90
51765;DHT22;37835;53.256;6.456;2023-05-18T12:05:47;14.10;99.90
51765;DHT22;37835;53.256;6.456;2023-05-18T12:08:17;14.10;99.90
51765;DHT22;37835;53.256;6.456;2023-05-18T12:10:51;14.20;99.90
51765;DHT22;37835;53.256;6.456;2023-05-18T12:13:16;14.30;99.90
51765;DHT22;37835;53.256;6.456;2023-05-18T12:15:43;14.30;99.90
51765;DHT22;37835;53.256;6.456;2023-05-18T12:18:09;14.30;99.90
51765;DHT22;37835;53.256;6.456;2023-05-18T12:20:38;14.30;99.90
51765;DHT22;37835;53.256;6.456;2023-05-18T12:23:04;14.30;99.90
51765;DHT22;37835;53.256;6.456;2023-05-18T12:25:30;14.30;99.90
51765;DHT22;37835;53.256;6.456;2023-05-18T12:27:55;14.30;99.90
51765;DHT22;37835;53.256;6.456;2023-05-18T12:30:26;14.30;99.90
51765;DHT22;37835;53.256;6.456;2023-05-18T12:32:59;14.30;99.90
51765;DHT22;37835;53.256;6.456;2023-05-18T12:35:26;14.30;99.90
51765;DHT22;37835;53.256;6.456;2023-05-18T12:37:52;14.50;99.90
51765;DHT22;37835;53.256;6.456;2023-05-18T12:40:20;14.30;99.90
51765;DHT22;37835;53.256;6.456;2023-05-18T12:42:57;14.30;99.90
51765;DHT22;37835;53.256;6.456;2023-05-18T12:45:30;14.30;99.90
51765;DHT22;37835;53.256;6.456;2023-05-18T12:48:03;14.30;99.90
51765;DHT22;37835;53.256;6.456;2023-05-18T12:50:29;14.30;99.90
51765;DHT22;37835;53.256;6.456;2023-05-18T12:52:54;14.30;99.90
51765;DHT22;37835;53.256;6.456;2023-05-18T12:55:23;14.30;99.90
51765;DHT22;37835;53.256;6.456;2023-05-18T12:58:02;14.30;99.90
51765;DHT22;37835;53.256;6.456;2023-05-18T13:00:32;14.40;99.90
51765;DHT22;37835;53.256;6.456;2023-05-18T13:03:09;14.50;99.90
51765;DHT22;37835;53.256;6.456;2023-05-18T13:05:35;14.50;99.90
51765;DHT22;37835;53.256;6.456;2023-05-18T13:08:01;14.60;99.90
51765;DHT22;37835;53.256;6.456;2023-05-18T13:10:30;14.60;99.90
51765;DHT22;37835;53.256;6.456;2023-05-18T13:12:57;14.60;99.90
51765;DHT22;37835;53.256;6.456;2023-05-18T13:15:37;14.70;99.90
51765;DHT22;37835;53.256;6.456;2023-05-18T13:18:07;14.80;99.90
51765;DHT22;37835;53.256;6.456;2023-05-18T13:23:11;14.80;99.90
51765;DHT22;37835;53.256;6.456;2023-05-18T13:25:38;14.80;99.90
51765;DHT22;37835;53.256;6.456;2023-05-18T13:28:04;14.90;99.90
51765;DHT22;37835;53.256;6.456;2023-05-18T13:30:30;14.90;99.90
51765;DHT22;37835;53.256;6.456;2023-05-18T13:32:56;14.80;99.90
51765;DHT22;37835;53.256;6.456;2023-05-18T13:35:22;14.90;99.90
51765;DHT22;37835;53.256;6.456;2023-05-18T13:37:49;14.80;99.90
51765;DHT22;37835;53.256;6.456;2023-05-18T13:40:16;14.70;99.90
51765;DHT22;37835;53.256;6.456;2023-05-18T13:42:44;14.70;99.90
51765;DHT22;37835;53.256;6.456;2023-05-18T13:45:10;14.70;99.90
51765;DHT22;37835;53.256;6.456;2023-05-18T13:47:36;14.70;99.90
51765;DHT22;37835;53.256;6.456;2023-05-18T13:50:02;14.70;99.90
51765;DHT22;37835;53.256;6.456;2023-05-18T13:52:27;14.70;99.90
51765;DHT22;37835;53.256;6.456;2023-05-18T13:54:53;14.70;99.90
51765;DHT22;37835;53.256;6.456;2023-05-18T13:57:19;14.60;99.90
51765;DHT22;37835;53.256;6.456;2023-05-18T13:59:45;14.70;99.90
51765;DHT22;37835;53.256;6.456;2023-05-18T14:02:11;14.70;99.90
51765;DHT22;37835;53.256;6.456;2023-05-18T14:04:37;14.90;99.90
51765;DHT22;37835;53.256;6.456;2023-05-18T14:07:02;14.90;99.90
51765;DHT22;37835;53.256;6.456;2023-05-18T14:09:28;15.00;99.90
51765;DHT22;37835;53.256;6.456;2023-05-18T14:11:54;15.00;99.90
51765;DHT22;37835;53.256;6.456;2023-05-18T14:14:20;15.10;99.90
51765;DHT22;37835;53.256;6.456;2023-05-18T14:16:45;15.20;99.90
51765;DHT22;37835;53.256;6.456;2023-05-18T14:19:11;15.30;99.90
51765;DHT22;37835;53.256;6.456;2023-05-18T14:21:37;15.30;99.90
51765;DHT22;37835;53.256;6.456;2023-05-18T14:24:02;15.40;99.90
51765;DHT22;37835;53.256;6.456;2023-05-18T14:26:32;15.50;99.90
51765;DHT22;37835;53.256;6.456;2023-05-18T14:28:57;15.50;99.90
51765;DHT22;37835;53.256;6.456;2023-05-18T14:31:23;15.50;99.90
51765;DHT22;37835;53.256;6.456;2023-05-18T14:33:49;15.40;99.90
51765;DHT22;37835;53.256;6.456;2023-05-18T14:36:14;15.50;99.90
51765;DHT22;37835;53.256;6.456;2023-05-18T14:38:40;15.50;99.90
51765;DHT22;37835;53.256;6.456;2023-05-18T14:41:07;15.50;99.90
51765;DHT22;37835;53.256;6.456;2023-05-18T14:43:33;15.50;99.90
51765;DHT22;37835;53.256;6.456;2023-05-18T14:45:59;15.50;99.90
51765;DHT22;37835;53.256;6.456;2023-05-18T14:48:24;15.40;99.90
51765;DHT22;37835;53.256;6.456;2023-05-18T14:50:50;15.40;99.90
51765;DHT22;37835;53.256;6.456;2023-05-18T14:53:17;15.50;99.90
51765;DHT22;37835;53.256;6.456;2023-05-18T14:55:43;15.50;99.90
51765;DHT22;37835;53.256;6.456;2023-05-18T14:58:08;15.50;99.90
51765;DHT22;37835;53.256;6.456;2023-05-18T15:00:39;15.50;99.90
51765;DHT22;37835;53.256;6.456;2023-05-18T15:03:05;15.40;99.90
51765;DHT22;37835;53.256;6.456;2023-05-18T15:05:31;15.40;99.90
51765;DHT22;37835;53.256;6.456;2023-05-18T15:07:56;15.30;99.90
51765;DHT22;37835;53.256;6.456;2023-05-18T15:10:22;15.40;99.90
51765;DHT22;37835;53.256;6.456;2023-05-18T15:12:48;15.40;99.90
51765;DHT22;37835;53.256;6.456;2023-05-18T15:15:14;15.40;99.90
51765;DHT22;37835;53.256;6.456;2023-05-18T15:17:39;15.40;99.90
51765;DHT22;37835;53.256;6.456;2023-05-18T15:20:06;15.50;99.90
51765;DHT22;37835;53.256;6.456;2023-05-18T15:22:32;15.50;99.90
51765;DHT22;37835;53.256;6.456;2023-05-18T15:25:03;15.40;99.90
51765;DHT22;37835;53.256;6.456;2023-05-18T15:27:32;15.40;99.90
51765;DHT22;37835;53.256;6.456;2023-05-18T15:29:58;15.50;99.90
51765;DHT22;37835;53.256;6.456;2023-05-18T15:32:24;15.60;99.90
51765;DHT22;37835;53.256;6.456;2023-05-18T15:34:49;15.60;99.90
51765;DHT22;37835;53.256;6.456;2023-05-18T15:37:19;15.70;99.90
51765;DHT22;37835;53.256;6.456;2023-05-18T15:39:45;15.80;99.90
51765;DHT22;37835;53.256;6.456;2023-05-18T15:42:11;15.80;99.90
51765;DHT22;37835;53.256;6.456;2023-05-18T15:44:36;15.90;99.90
51765;DHT22;37835;53.256;6.456;2023-05-18T15:47:03;15.90;99.90
51765;DHT22;37835;53.256;6.456;2023-05-18T15:49:29;16.00;99.90
51765;DHT22;37835;53.256;6.456;2023-05-18T15:51:54;16.00;99.90
51765;DHT22;37835;53.256;6.456;2023-05-18T15:54:20;16.00;99.90